Time;durP1;ratioP1;P1;durP2;ratioP2;P2;SDS_P1;SDS_P2;PMS_P1;PMS_P2;Temp;Humidity;BMP_temperature;BMP_pressure;BME280_temperature;BME280_humidity;BME280_pressure;Samples;Min_cycle;Max_cycle;Signal;HPM_P1;HPM_P2
2021/12/15 00:00:51;;;;;;;4.30;1.35;;;;;;;;;;4932379;29;20495;-65
2021/12/15 00:03:22;;;;;;;4.93;1.48;;;;;;;;;;4916998;29;20551;-68
2021/12/15 00:05:53;;;;;;;6.25;1.35;;;;;;;;;;4932108;29;20051;-71
2021/12/15 00:08:23;;;;;;;2.78;1.40;;;;;;;;;;4913619;29;20056;-66
2021/12/15 00:10:54;;;;;;;5.82;1.27;;;;;;;;;;4894035;29;20168;-65
2021/12/15 00:13:24;;;;;;;5.13;1.20;;;;;;;;;;4894771;29;20068;-66
2021/12/15 00:15:55;;;;;;;4.90;1.13;;;;;;;;;;4905591;29;20056;-65
2021/12/15 00:18:25;;;;;;;6.97;1.20;;;;;;;;;;4884216;29;20061;-70
2021/12/15 00:20:56;;;;;;;2.22;1.10;;;;;;;;;;4884156;29;20065;-65
2021/12/15 00:23:26;;;;;;;4.60;1.50;;;;;;;;;;4884415;29;20430;-64
2021/12/15 00:25:57;;;;;;;7.55;1.20;;;;;;;;;;4891207;29;20068;-65
2021/12/15 00:28:27;;;;;;;3.83;1.35;;;;;;;;;;4913387;29;20059;-67
2021/12/15 00:30:59;;;;;;;5.32;1.20;;;;;;;;;;4912332;29;20052;-66
2021/12/15 00:33:30;;;;;;;5.80;1.05;;;;;;;;;;4913054;29;20564;-68
2021/12/15 00:36:00;;;;;;;2.30;1.15;;;;;;;;;;4912545;29;20056;-65
2021/12/15 00:38:32;;;;;;;6.82;1.23;;;;;;;;;;4882931;29;20056;-69
2021/12/15 00:41:02;;;;;;;4.55;1.40;;;;;;;;;;4893695;29;20045;-65
2021/12/15 00:43:34;;;;;;;5.00;1.13;;;;;;;;;;4882776;29;20048;-65
2021/12/15 00:46:05;;;;;;;2.50;1.15;;;;;;;;;;4902819;29;20052;-67
2021/12/15 00:48:37;;;;;;;5.00;1.20;;;;;;;;;;4894496;29;20048;-66
2021/12/15 00:51:08;;;;;;;3.75;1.30;;;;;;;;;;4931479;29;20059;-67
2021/12/15 00:53:38;;;;;;;7.00;1.30;;;;;;;;;;4932019;29;20082;-70
2021/12/15 00:56:10;;;;;;;3.47;0.90;;;;;;;;;;4883598;29;20127;-67
2021/12/15 00:58:43;;;;;;;3.22;1.20;;;;;;;;;;4873279;29;20060;-66
2021/12/15 01:01:14;;;;;;;5.07;1.20;;;;;;;;;;4856445;29;20050;-66
2021/12/15 01:03:47;;;;;;;4.57;1.30;;;;;;;;;;4871571;29;20058;-66
2021/12/15 01:06:21;;;;;;;4.90;1.40;;;;;;;;;;4877520;29;20056;-66
2021/12/15 01:09:00;;;;;;;3.97;1.23;;;;;;;;;;4893489;29;20502;-67
2021/12/15 01:20:09;;;;;;;3.22;1.25;;;;;;;;;;4856015;29;20061;-69
2021/12/15 01:22:47;;;;;;;4.43;1.30;;;;;;;;;;4823928;29;20502;-68
2021/12/15 01:25:25;;;;;;;4.00;1.13;;;;;;;;;;4819857;29;20066;-67
2021/12/15 01:27:57;;;;;;;4.75;1.40;;;;;;;;;;4846134;29;20065;-67
2021/12/15 01:30:30;;;;;;;4.68;1.20;;;;;;;;;;4893439;29;20166;-67
2021/12/15 01:33:02;;;;;;;3.03;1.23;;;;;;;;;;4896559;29;20048;-67
2021/12/15 01:35:34;;;;;;;3.70;1.90;;;;;;;;;;4940139;28;20450;-68
2021/12/15 01:38:06;;;;;;;4.28;1.33;;;;;;;;;;4988676;28;20054;-68
2021/12/15 01:40:40;;;;;;;5.50;1.52;;;;;;;;;;4987651;28;20054;-66
2021/12/15 01:43:21;;;;;;;4.55;1.45;;;;;;;;;;4930936;29;20047;-67
2021/12/15 01:49:17;;;;;;;5.03;1.40;;;;;;;;;;4898060;29;20055;-67
2021/12/15 01:51:48;;;;;;;4.60;1.58;;;;;;;;;;4811342;29;20062;-67
2021/12/15 01:54:21;;;;;;;5.00;1.50;;;;;;;;;;4809152;29;20058;-68
2021/12/15 01:56:52;;;;;;;5.28;1.77;;;;;;;;;;4833779;29;20050;-68
2021/12/15 01:59:26;;;;;;;5.03;1.35;;;;;;;;;;4864528;29;20049;-68
2021/12/15 02:01:59;;;;;;;8.00;1.55;;;;;;;;;;4881801;29;20097;-76
2021/12/15 02:04:30;;;;;;;2.08;1.05;;;;;;;;;;4834024;29;20048;-67
2021/12/15 02:07:05;;;;;;;3.90;1.27;;;;;;;;;;4867353;29;20067;-68
2021/12/15 02:12:20;;;;;;;5.63;1.60;;;;;;;;;;4863482;29;20053;-67
2021/12/15 02:14:51;;;;;;;4.63;1.75;;;;;;;;;;4881460;29;20064;-67
2021/12/15 02:17:22;;;;;;;6.95;1.80;;;;;;;;;;4887251;29;20061;-67
2021/12/15 02:19:53;;;;;;;5.43;1.45;;;;;;;;;;4864860;29;20049;-68
2021/12/15 02:22:24;;;;;;;6.72;1.98;;;;;;;;;;4849075;29;20545;-67
2021/12/15 02:24:55;;;;;;;4.22;1.63;;;;;;;;;;4846218;29;20050;-67
2021/12/15 02:27:32;;;;;;;3.72;1.60;;;;;;;;;;4856660;29;20053;-68
2021/12/15 02:30:22;;;;;;;2.88;1.30;;;;;;;;;;4910340;29;20071;-69
2021/12/15 02:38:12;;;;;;;4.38;1.55;;;;;;;;;;4934429;29;20055;-68
2021/12/15 02:40:44;;;;;;;5.40;1.45;;;;;;;;;;4921648;28;20056;-70
2021/12/15 02:43:15;;;;;;;6.43;1.63;;;;;;;;;;4900168;29;20059;-68
2021/12/15 02:45:45;;;;;;;5.75;1.33;;;;;;;;;;4930190;29;20052;-68
2021/12/15 02:48:16;;;;;;;6.63;1.80;;;;;;;;;;4896049;29;20063;-67
2021/12/15 02:50:47;;;;;;;3.67;1.70;;;;;;;;;;4933306;28;20047;-68
2021/12/15 02:53:18;;;;;;;6.40;1.63;;;;;;;;;;4918429;29;20067;-68
2021/12/15 02:55:49;;;;;;;4.72;1.83;;;;;;;;;;4934009;29;20059;-69
2021/12/15 02:58:21;;;;;;;6.55;1.92;;;;;;;;;;4918082;29;20577;-72
2021/12/15 03:00:59;;;;;;;;;;;;;;;;;;4941160;28;20067;-67
2021/12/15 03:04:02;;;;;;;2.15;1.42;;;;;;;;;;4948614;29;20561;-68
2021/12/15 03:06:29;;;;;;;4.43;1.90;;;;;;;;;;4952149;29;20051;-71
2021/12/15 03:09:21;;;;;;;4.53;1.40;;;;;;;;;;4933042;29;20058;-68
2021/12/15 03:17:27;;;;;;;3.35;1.88;;;;;;;;;;4914775;29;20056;-67
2021/12/15 03:19:58;;;;;;;4.00;1.52;;;;;;;;;;4885533;29;20508;-67
2021/12/15 03:22:28;;;;;;;4.80;2.05;;;;;;;;;;4895746;29;20064;-67
2021/12/15 03:24:59;;;;;;;5.22;1.88;;;;;;;;;;4880714;29;20056;-68
2021/12/15 03:33:27;;;;;;;7.60;1.98;;;;;;;;;;4897968;29;20508;-67
2021/12/15 03:36:02;;;;;;;4.65;2.17;;;;;;;;;;4872815;29;20173;-67
2021/12/15 03:38:34;;;;;;;4.32;1.90;;;;;;;;;;4923711;29;20055;-70
2021/12/15 03:41:08;;;;;;;5.10;1.92;;;;;;;;;;4933105;29;20048;-69
2021/12/15 03:43:39;;;;;;;9.80;1.90;;;;;;;;;;4920572;29;20178;-68
2021/12/15 03:46:16;;;;;;;7.80;1.90;;;;;;;;;;4938899;28;20139;-68
2021/12/15 03:48:46;;;;;;;6.88;1.95;;;;;;;;;;4948536;28;20052;-67
2021/12/15 03:51:17;;;;;;;8.20;2.80;;;;;;;;;;4914100;29;20072;-67
2021/12/15 03:53:48;;;;;;;4.03;1.83;;;;;;;;;;4882728;29;20193;-69
2021/12/15 03:56:18;;;;;;;6.18;2.10;;;;;;;;;;4913486;29;20056;-68
2021/12/15 03:58:49;;;;;;;4.22;2.33;;;;;;;;;;4898275;29;20421;-71
2021/12/15 04:01:22;;;;;;;7.05;2.78;;;;;;;;;;4913572;29;20443;-67
2021/12/15 04:03:55;;;;;;;6.82;2.20;;;;;;;;;;4913788;29;20056;-68
2021/12/15 04:06:31;;;;;;;13.20;2.20;;;;;;;;;;4913806;29;20142;-68
2021/12/15 04:09:04;;;;;;;3.58;2.15;;;;;;;;;;4913570;29;20060;-68
2021/12/15 04:11:36;;;;;;;3.20;1.80;;;;;;;;;;4879519;29;20061;-71
2021/12/15 04:14:11;;;;;;;4.15;2.40;;;;;;;;;;4876102;29;20421;-69
2021/12/15 04:16:45;;;;;;;5.43;2.00;;;;;;;;;;4875872;29;20565;-68
2021/12/15 04:19:21;;;;;;;3.55;2.03;;;;;;;;;;4902509;29;20064;-68
2021/12/15 04:21:52;;;;;;;5.38;1.95;;;;;;;;;;4945802;28;20507;-67
2021/12/15 04:24:26;;;;;;;7.53;2.03;;;;;;;;;;4951533;28;20055;-67
2021/12/15 04:26:59;;;;;;;6.90;2.05;;;;;;;;;;4963274;28;20065;-68
2021/12/15 04:29:32;;;;;;;3.60;1.73;;;;;;;;;;4970927;28;20062;-68
2021/12/15 04:32:15;;;;;;;7.65;2.35;;;;;;;;;;4932139;29;20066;-68
2021/12/15 04:34:45;;;;;;;4.65;2.05;;;;;;;;;;4890375;29;20056;-68
2021/12/15 04:37:15;;;;;;;3.45;1.98;;;;;;;;;;4860195;29;20072;-68
2021/12/15 04:39:46;;;;;;;5.72;2.10;;;;;;;;;;4859869;29;20060;-68
2021/12/15 04:42:19;;;;;;;5.43;2.20;;;;;;;;;;4893918;29;20056;-69
2021/12/15 04:44:52;;;;;;;7.75;2.53;;;;;;;;;;4857026;29;20065;-67
2021/12/15 04:47:23;;;;;;;5.32;2.25;;;;;;;;;;4857343;29;20061;-68
2021/12/15 04:49:56;;;;;;;5.03;2.72;;;;;;;;;;4900612;29;20425;-67
2021/12/15 04:52:30;;;;;;;4.90;3.17;;;;;;;;;;4893806;29;20469;-70
2021/12/15 04:55:04;;;;;;;4.03;2.10;;;;;;;;;;4894182;29;20064;-68
2021/12/15 04:57:35;;;;;;;5.28;2.38;;;;;;;;;;4894405;29;20064;-69
2021/12/15 05:00:11;;;;;;;5.32;2.67;;;;;;;;;;4908194;29;20205;-68
2021/12/15 05:02:42;;;;;;;9.38;3.40;;;;;;;;;;4912856;29;20461;-68
2021/12/15 05:05:12;;;;;;;8.00;2.50;;;;;;;;;;4894105;29;20052;-68
2021/12/15 05:07:43;;;;;;;7.78;2.50;;;;;;;;;;4872005;29;20053;-67
2021/12/15 05:10:13;;;;;;;5.82;2.63;;;;;;;;;;4884252;29;20064;-67
2021/12/15 05:12:45;;;;;;;5.30;2.50;;;;;;;;;;4905871;29;20060;-69
2021/12/15 05:15:16;;;;;;;5.65;2.47;;;;;;;;;;4913282;29;20052;-69
2021/12/15 05:17:47;;;;;;;5.60;2.63;;;;;;;;;;4912953;29;20048;-68
2021/12/15 05:20:17;;;;;;;6.72;2.22;;;;;;;;;;4844693;29;20066;-68
2021/12/15 05:22:48;;;;;;;4.78;2.83;;;;;;;;;;4862423;29;20065;-68
2021/12/15 05:25:19;;;;;;;5.28;2.63;;;;;;;;;;4875324;29;20098;-68
2021/12/15 05:27:50;;;;;;;5.85;2.50;;;;;;;;;;4875060;29;20569;-69
2021/12/15 05:30:20;;;;;;;4.05;2.30;;;;;;;;;;4885939;29;20061;-74
2021/12/15 05:32:52;;;;;;;3.60;2.17;;;;;;;;;;4927887;29;20056;-66
2021/12/15 05:35:25;;;;;;;4.75;2.50;;;;;;;;;;4917406;29;20063;-67
2021/12/15 05:37:59;;;;;;;7.75;2.78;;;;;;;;;;4931664;29;20063;-66
2021/12/15 05:40:30;;;;;;;6.97;3.03;;;;;;;;;;4901670;29;20048;-67
2021/12/15 05:43:04;;;;;;;4.47;2.20;;;;;;;;;;4915662;29;20056;-66
2021/12/15 05:45:38;;;;;;;6.97;2.85;;;;;;;;;;4942414;29;20059;-66
2021/12/15 05:48:12;;;;;;;5.45;2.60;;;;;;;;;;4950673;29;20048;-69
2021/12/15 05:50:44;;;;;;;6.80;2.47;;;;;;;;;;4950690;28;20062;-67
2021/12/15 05:53:15;;;;;;;5.30;2.60;;;;;;;;;;4954489;29;20059;-67
2021/12/15 05:55:46;;;;;;;6.40;2.30;;;;;;;;;;4954325;29;20546;-67
2021/12/15 05:58:16;;;;;;;9.07;2.58;;;;;;;;;;4966540;28;20054;-67
2021/12/15 06:00:48;;;;;;;3.80;2.65;;;;;;;;;;4950273;29;20421;-66
2021/12/15 06:03:20;;;;;;;4.10;2.28;;;;;;;;;;4935228;29;20056;-68
2021/12/15 06:05:50;;;;;;;5.68;2.45;;;;;;;;;;4934643;29;20067;-77
2021/12/15 06:08:20;;;;;;;7.88;2.15;;;;;;;;;;4934816;29;20518;-66
2021/12/15 06:10:50;;;;;;;7.30;2.47;;;;;;;;;;4946908;29;20058;-66
2021/12/15 06:13:25;;;;;;;6.55;2.53;;;;;;;;;;4922220;29;20055;-66
2021/12/15 06:15:58;;;;;;;7.47;2.33;;;;;;;;;;4954030;29;20059;-66
2021/12/15 06:18:28;;;;;;;7.80;2.50;;;;;;;;;;4959167;28;20047;-66
2021/12/15 06:20:59;;;;;;;6.90;2.72;;;;;;;;;;4953635;29;20069;-66
2021/12/15 06:23:30;;;;;;;5.68;2.63;;;;;;;;;;4953812;29;20047;-66
2021/12/15 06:26:04;;;;;;;4.03;2.60;;;;;;;;;;4899503;29;20096;-72
2021/12/15 06:28:36;;;;;;;7.13;2.72;;;;;;;;;;4896288;29;20402;-66
2021/12/15 06:31:07;;;;;;;;;;;;;;;;;;4877856;29;20052;-68
2021/12/15 06:33:39;;;;;;;6.88;2.42;;;;;;;;;;4878237;29;19924;-66
2021/12/15 06:36:12;;;;;;;;;;;;;;;;;;4907659;29;20048;-66
2021/12/15 06:38:45;;;;;;;5.55;2.42;;;;;;;;;;4911644;29;20383;-66
2021/12/15 06:41:18;;;;;;;6.60;2.75;;;;;;;;;;4933969;29;20060;-67
2021/12/15 06:43:54;;;;;;;4.82;2.58;;;;;;;;;;4914959;29;20052;-68
2021/12/15 06:47:17;;;;;;;6.07;2.60;;;;;;;;;;4915112;29;20067;-67
2021/12/15 07:00:39;;;;;;;5.95;2.90;;;;;;;;;;4924981;29;20120;-69
2021/12/15 07:03:10;;;;;;;6.70;2.75;;;;;;;;;;4952022;28;20066;-66
2021/12/15 07:05:40;;;;;;;5.65;3.03;;;;;;;;;;4958054;28;20065;-66
2021/12/15 07:08:12;;;;;;;6.10;3.03;;;;;;;;;;4956444;28;20051;-68
2021/12/15 07:10:46;;;;;;;8.02;3.33;;;;;;;;;;4972219;28;20491;-67
2021/12/15 07:13:18;;;;;;;10.15;3.35;;;;;;;;;;4956282;28;20062;-69
2021/12/15 07:15:59;;;;;;;5.72;3.40;;;;;;;;;;4952970;28;21030;-68
2021/12/15 07:18:52;;;;;;;7.78;4.65;;;;;;;;;;4937496;28;20412;-66
2021/12/15 07:21:25;;;;;;;7.47;3.47;;;;;;;;;;4952503;28;20074;-68
2021/12/15 07:23:55;;;;;;;10.60;3.97;;;;;;;;;;4952720;28;20062;-67
2021/12/15 07:26:26;;;;;;;5.10;3.45;;;;;;;;;;4963586;28;20058;-66
2021/12/15 07:28:56;;;;;;;5.55;3.30;;;;;;;;;;4990980;28;20542;-68
2021/12/15 07:31:27;;;;;;;7.97;3.50;;;;;;;;;;4991271;28;20054;-67
2021/12/15 07:33:57;;;;;;;8.70;3.42;;;;;;;;;;4971151;28;20050;-67
2021/12/15 07:36:27;;;;;;;6.15;3.80;;;;;;;;;;4952177;28;20423;-67
2021/12/15 07:38:59;;;;;;;7.00;2.85;;;;;;;;;;4932975;28;20056;-66
2021/12/15 07:41:36;;;;;;;6.25;3.25;;;;;;;;;;4933349;29;20162;-67
2021/12/15 07:44:08;;;;;;;8.65;4.78;;;;;;;;;;4964947;28;20419;-66
2021/12/15 07:46:54;;;;;;;6.55;3.75;;;;;;;;;;4971651;28;20188;-68
2021/12/15 07:49:27;;;;;;;7.75;5.25;;;;;;;;;;4989589;28;20489;-69
2021/12/15 07:52:04;;;;;;;9.77;4.70;;;;;;;;;;4958588;28;20057;-67
2021/12/15 07:54:36;;;;;;;8.73;4.93;;;;;;;;;;4990974;28;20058;-67
2021/12/15 07:57:11;;;;;;;6.72;4.22;;;;;;;;;;4974841;28;20062;-66
2021/12/15 07:59:42;;;;;;;6.68;3.92;;;;;;;;;;4974902;28;20066;-67
2021/12/15 08:02:13;;;;;;;10.70;4.35;;;;;;;;;;4938940;28;20478;-67
2021/12/15 08:04:44;;;;;;;8.60;4.28;;;;;;;;;;4971423;28;20059;-67
2021/12/15 08:07:15;;;;;;;6.38;3.88;;;;;;;;;;4940165;29;20055;-66
2021/12/15 08:09:49;;;;;;;10.88;4.18;;;;;;;;;;4932771;29;20052;-67
2021/12/15 08:12:19;;;;;;;9.50;4.78;;;;;;;;;;4947781;28;20051;-74
2021/12/15 08:14:49;;;;;;;7.80;3.92;;;;;;;;;;4982375;28;20046;-67
2021/12/15 08:17:21;;;;;;;7.03;4.15;;;;;;;;;;4990470;28;20494;-67
2021/12/15 08:19:51;;;;;;;8.32;4.60;;;;;;;;;;4990440;28;20054;-69
2021/12/15 08:22:22;;;;;;;11.30;4.53;;;;;;;;;;4951261;29;20055;-66
2021/12/15 08:24:52;;;;;;;8.15;4.05;;;;;;;;;;4951795;29;20051;-66
2021/12/15 08:27:23;;;;;;;9.55;4.50;;;;;;;;;;4970949;28;20065;-68
2021/12/15 08:29:53;;;;;;;7.25;3.67;;;;;;;;;;4970880;28;20414;-70
2021/12/15 08:32:24;;;;;;;8.32;4.13;;;;;;;;;;4970068;28;20054;-67
2021/12/15 08:34:55;;;;;;;7.65;4.20;;;;;;;;;;4950991;29;20050;-67
2021/12/15 08:37:25;;;;;;;10.52;3.78;;;;;;;;;;4919419;29;20059;-66
2021/12/15 08:39:56;;;;;;;7.30;3.92;;;;;;;;;;4921695;29;20052;-67
2021/12/15 08:42:27;;;;;;;6.93;3.90;;;;;;;;;;4897867;29;20063;-67
2021/12/15 08:44:58;;;;;;;12.32;4.30;;;;;;;;;;4897870;29;20067;-67
2021/12/15 08:47:29;;;;;;;7.85;4.30;;;;;;;;;;4917107;29;20047;-67
2021/12/15 08:49:59;;;;;;;10.55;4.00;;;;;;;;;;4951275;29;20063;-70
2021/12/15 08:52:29;;;;;;;8.48;4.22;;;;;;;;;;4966537;28;20050;-70
2021/12/15 08:55:00;;;;;;;10.32;4.60;;;;;;;;;;4934932;28;20059;-67
2021/12/15 08:57:30;;;;;;;7.38;4.30;;;;;;;;;;4950825;28;20051;-69
2021/12/15 09:00:01;;;;;;;8.40;4.13;;;;;;;;;;4951193;28;20059;-66
2021/12/15 09:02:31;;;;;;;10.18;4.03;;;;;;;;;;4951305;28;20051;-68
2021/12/15 09:05:02;;;;;;;9.60;4.40;;;;;;;;;;4915717;29;20067;-67
2021/12/15 09:07:33;;;;;;;8.10;4.72;;;;;;;;;;4912599;29;20048;-67
2021/12/15 09:10:04;;;;;;;12.23;5.30;;;;;;;;;;4903140;29;20544;-68
2021/12/15 09:12:38;;;;;;;9.35;5.07;;;;;;;;;;4881899;29;20060;-70
2021/12/15 09:15:09;;;;;;;8.45;4.97;;;;;;;;;;4912196;29;20772;-67
2021/12/15 09:17:41;;;;;;;9.75;4.95;;;;;;;;;;4932298;29;20059;-68
2021/12/15 09:20:16;;;;;;;10.07;5.45;;;;;;;;;;4950433;29;20055;-68
2021/12/15 09:22:47;;;;;;;11.15;5.88;;;;;;;;;;4950679;29;20070;-67
2021/12/15 09:25:18;;;;;;;13.95;5.30;;;;;;;;;;4950412;28;20060;-67
2021/12/15 09:27:49;;;;;;;10.40;5.47;;;;;;;;;;4954175;29;20427;-67
2021/12/15 09:30:21;;;;;;;13.43;5.82;;;;;;;;;;4947974;28;20051;-71
2021/12/15 09:32:52;;;;;;;13.20;4.97;;;;;;;;;;4981443;28;20055;-69
2021/12/15 09:35:27;;;;;;;7.43;4.80;;;;;;;;;;4922675;29;20575;-68
2021/12/15 09:37:59;;;;;;;8.57;4.55;;;;;;;;;;4949784;28;20527;-68
2021/12/15 09:40:30;;;;;;;8.45;4.60;;;;;;;;;;4934486;29;20047;-67
2021/12/15 09:43:03;;;;;;;9.48;4.95;;;;;;;;;;4915930;29;20056;-68
2021/12/15 10:11:00;;;;;;;6.60;3.75;;;;;;;;;;4886739;29;20223;-67
2021/12/15 10:19:34;;;;;;;5.57;3.60;;;;;;;;;;4868459;29;20048;-66
2021/12/15 10:22:11;;;;;;;7.85;3.40;;;;;;;;;;4871093;29;20061;-67
2021/12/15 10:24:52;;;;;;;7.28;3.00;;;;;;;;;;4867166;29;20124;-67
2021/12/15 10:27:54;;;;;;;5.30;2.53;;;;;;;;;;4867624;29;20057;-67
2021/12/15 10:30:32;;;;;;;6.65;2.55;;;;;;;;;;4844308;29;20050;-67
2021/12/15 10:33:06;;;;;;;5.63;2.70;;;;;;;;;;4887685;29;20049;-68
2021/12/15 10:35:49;;;;;;;7.03;2.30;;;;;;;;;;4906144;29;20052;-67
2021/12/15 10:38:30;;;;;;;4.70;2.25;;;;;;;;;;4901317;29;20059;-66
2021/12/15 10:41:10;;;;;;;6.90;2.35;;;;;;;;;;4895340;28;20051;-66
2021/12/15 10:44:06;;;;;;;6.47;2.25;;;;;;;;;;4973035;28;20054;-66
2021/12/15 10:46:41;;;;;;;4.38;2.20;;;;;;;;;;4992032;28;20058;-66
2021/12/15 10:49:19;;;;;;;4.22;1.75;;;;;;;;;;4976560;28;20566;-71
2021/12/15 10:52:03;;;;;;;4.18;1.90;;;;;;;;;;4976427;28;20157;-67
2021/12/15 10:54:33;;;;;;;4.93;1.70;;;;;;;;;;5035124;28;20053;-65
2021/12/15 10:57:05;;;;;;;3.78;1.65;;;;;;;;;;5013573;28;20052;-68
2021/12/15 10:59:42;;;;;;;4.55;1.65;;;;;;;;;;5048474;28;20049;-66
2021/12/15 11:02:33;;;;;;;5.22;1.60;;;;;;;;;;5050307;28;20424;-66
2021/12/15 11:05:09;;;;;;;5.70;1.50;;;;;;;;;;5027226;28;20053;-65
2021/12/15 11:07:59;;;;;;;4.07;1.83;;;;;;;;;;5031202;28;20061;-66
2021/12/15 11:10:33;;;;;;;3.63;1.40;;;;;;;;;;5031259;28;20413;-65
2021/12/15 11:13:08;;;;;;;4.60;1.30;;;;;;;;;;5031475;28;20049;-65
2021/12/15 11:15:45;;;;;;;3.95;1.50;;;;;;;;;;4998119;28;20390;-66
2021/12/15 11:18:22;;;;;;;4.65;1.85;;;;;;;;;;5030948;28;20525;-66
2021/12/15 11:21:01;;;;;;;5.60;2.35;;;;;;;;;;5030759;28;20618;-65
2021/12/15 11:23:32;;;;;;;5.13;1.50;;;;;;;;;;5038909;28;20049;-68
2021/12/15 11:26:12;;;;;;;3.00;1.77;;;;;;;;;;5037666;28;20448;-70
2021/12/15 11:28:51;;;;;;;2.50;1.48;;;;;;;;;;5054554;28;20040;-66
2021/12/15 11:31:31;;;;;;;3.22;1.60;;;;;;;;;;5070997;28;20060;-66
2021/12/15 11:34:07;;;;;;;3.22;1.60;;;;;;;;;;5070648;28;20056;-64
2021/12/15 11:36:44;;;;;;;4.10;1.70;;;;;;;;;;5030329;28;20049;-65
2021/12/15 11:39:19;;;;;;;2.58;1.65;;;;;;;;;;5014515;28;20065;-65
2021/12/15 11:41:53;;;;;;;3.60;1.95;;;;;;;;;;5032458;28;20053;-65
2021/12/15 11:44:26;;;;;;;3.65;1.90;;;;;;;;;;5010568;28;20054;-66
2021/12/15 11:47:03;;;;;;;3.75;1.77;;;;;;;;;;5010852;28;20560;-65
2021/12/15 11:49:36;;;;;;;5.07;2.05;;;;;;;;;;4993988;28;20054;-66
2021/12/15 11:52:10;;;;;;;6.05;1.90;;;;;;;;;;5010709;28;20058;-65
2021/12/15 11:54:48;;;;;;;3.30;1.58;;;;;;;;;;5010729;28;20062;-64
2021/12/15 11:57:23;;;;;;;;;;;;;;;;;;5011120;28;20050;-64
2021/12/15 12:00:21;;;;;;;4.32;2.00;;;;;;;;;;4955163;28;19926;-71
2021/12/15 12:02:54;;;;;;;3.47;1.70;;;;;;;;;;4946687;28;20047;-65
2021/12/15 12:05:33;;;;;;;5.40;1.70;;;;;;;;;;4935959;29;20522;-68
2021/12/15 12:08:10;;;;;;;5.40;1.77;;;;;;;;;;4951290;29;20055;-63
2021/12/15 12:10:48;;;;;;;4.93;1.85;;;;;;;;;;4894156;29;20067;-66
2021/12/15 12:13:24;;;;;;;7.53;2.00;;;;;;;;;;4898450;29;20067;-65
2021/12/15 12:15:58;;;;;;;4.53;1.70;;;;;;;;;;4894123;29;20056;-65
2021/12/15 12:18:32;;;;;;;14.00;2.08;;;;;;;;;;4894458;29;20049;-65
2021/12/15 12:21:06;;;;;;;6.90;1.80;;;;;;;;;;4892640;29;20548;-64
2021/12/15 12:23:40;;;;;;;7.88;1.98;;;;;;;;;;4875470;29;20465;-64
2021/12/15 12:26:11;;;;;;;3.83;1.70;;;;;;;;;;4857175;29;20050;-65
2021/12/15 12:28:46;;;;;;;5.43;1.70;;;;;;;;;;4857372;29;20065;-69
2021/12/15 12:31:22;;;;;;;9.32;1.83;;;;;;;;;;4870790;29;20061;-65
2021/12/15 12:33:53;;;;;;;4.30;1.50;;;;;;;;;;4891114;29;20057;-66
2021/12/15 12:36:34;;;;;;;3.30;1.60;;;;;;;;;;4887400;29;20051;-64
2021/12/15 12:39:09;;;;;;;4.80;1.60;;;;;;;;;;4894552;29;20056;-64
2021/12/15 12:41:48;;;;;;;5.57;1.65;;;;;;;;;;4975449;28;20047;-67
2021/12/15 12:44:32;;;;;;;7.18;1.90;;;;;;;;;;4986980;28;20050;-64
2021/12/15 12:47:26;;;;;;;6.13;1.75;;;;;;;;;;4972496;28;20054;-67
2021/12/15 13:01:08;;;;;;;3.13;1.52;;;;;;;;;;5090287;28;20047;-64
2021/12/15 13:03:45;;;;;;;3.17;1.40;;;;;;;;;;5068264;28;20056;-67
2021/12/15 13:06:40;;;;;;;2.67;1.48;;;;;;;;;;5048087;28;20044;-64
2021/12/15 13:09:17;;;;;;;4.50;1.52;;;;;;;;;;4989885;28;20510;-64
2021/12/15 13:11:50;;;;;;;4.45;1.77;;;;;;;;;;4989115;28;20042;-63
2021/12/15 13:14:36;;;;;;;3.17;1.20;;;;;;;;;;4989493;28;20054;-65
2021/12/15 13:17:20;;;;;;;3.30;1.75;;;;;;;;;;4940362;28;20568;-64
2021/12/15 13:19:51;;;;;;;3.33;1.20;;;;;;;;;;4989608;28;20046;-68
2021/12/15 13:22:49;;;;;;;4.78;1.60;;;;;;;;;;4988907;28;20081;-67
2021/12/15 13:31:04;;;;;;;1.98;1.20;;;;;;;;;;4950588;29;20514;-63
2021/12/15 13:33:37;;;;;;;5.82;1.63;;;;;;;;;;4950693;29;20543;-66
2021/12/15 13:36:09;;;;;;;3.03;1.20;;;;;;;;;;4950894;29;20059;-64
2021/12/15 13:38:47;;;;;;;4.00;1.50;;;;;;;;;;4969416;28;20046;-77
2021/12/15 13:44:27;;;;;;;2.58;1.40;;;;;;;;;;4868655;29;20071;-64
2021/12/15 13:47:01;;;;;;;3.28;1.20;;;;;;;;;;4908089;29;20425;-64
2021/12/15 13:49:40;;;;;;;4.00;1.40;;;;;;;;;;4915915;28;20157;-65
2021/12/15 13:52:34;;;;;;;2.30;1.23;;;;;;;;;;4900378;29;20059;-64
2021/12/15 13:55:16;;;;;;;3.42;1.25;;;;;;;;;;4931718;29;20063;-65
2021/12/15 13:57:46;;;;;;;4.18;1.55;;;;;;;;;;4912358;29;20060;-67
2021/12/15 14:00:29;;;;;;;6.28;1.88;;;;;;;;;;4912528;29;20048;-64
2021/12/15 14:03:08;;;;;;;5.32;1.65;;;;;;;;;;4927880;28;20055;-66
2021/12/15 14:05:46;;;;;;;3.83;1.63;;;;;;;;;;4947494;28;20060;-66
2021/12/15 14:08:38;;;;;;;3.13;1.73;;;;;;;;;;4969103;28;20410;-65
2021/12/15 14:11:17;;;;;;;6.13;1.50;;;;;;;;;;4933921;28;20055;-66
2021/12/15 14:14:01;;;;;;;4.13;1.45;;;;;;;;;;4955557;28;20057;-64
2021/12/15 14:16:34;;;;;;;3.10;1.40;;;;;;;;;;4961120;28;20059;-64
2021/12/15 14:19:08;;;;;;;3.58;1.60;;;;;;;;;;4982720;28;20058;-64
2021/12/15 14:21:38;;;;;;;4.95;1.77;;;;;;;;;;4973807;28;20057;-65
2021/12/15 14:24:09;;;;;;;4.22;1.73;;;;;;;;;;4959285;28;20058;-64
2021/12/15 14:26:44;;;;;;;5.93;1.55;;;;;;;;;;4975484;28;20058;-65
2021/12/15 14:29:20;;;;;;;5.22;1.38;;;;;;;;;;4976065;28;20423;-69
2021/12/15 14:31:53;;;;;;;7.18;1.70;;;;;;;;;;4972860;28;20054;-63
2021/12/15 14:34:28;;;;;;;2.58;1.52;;;;;;;;;;4971549;28;20055;-64
2021/12/15 14:37:06;;;;;;;2.88;1.35;;;;;;;;;;4962436;28;20054;-68
2021/12/15 14:39:40;;;;;;;3.78;1.60;;;;;;;;;;4982663;28;20541;-65
2021/12/15 14:42:17;;;;;;;2.28;1.35;;;;;;;;;;4977835;28;20058;-66
2021/12/15 14:44:50;;;;;;;2.33;1.27;;;;;;;;;;4972605;28;20066;-66
2021/12/15 14:47:27;;;;;;;2.40;1.38;;;;;;;;;;4972385;28;20043;-66
2021/12/15 14:50:04;;;;;;;1.95;1.33;;;;;;;;;;4956612;28;20054;-66
2021/12/15 14:52:38;;;;;;;3.90;1.50;;;;;;;;;;4937363;29;20051;-67
2021/12/15 14:55:18;;;;;;;5.57;1.45;;;;;;;;;;4969246;28;20070;-67
2021/12/15 14:58:09;;;;;;;3.03;1.33;;;;;;;;;;4953385;28;20066;-65
2021/12/15 15:00:41;;;;;;;12.15;8.65;;;;;;;;;;4972567;28;20167;-66
2021/12/15 15:03:12;;;;;;;5.22;4.60;;;;;;;;;;4972534;28;20592;-66
2021/12/15 15:05:46;;;;;;;4.38;1.25;;;;;;;;;;4988633;28;20061;-65
2021/12/15 15:08:35;;;;;;;2.60;1.38;;;;;;;;;;4972254;28;20097;-65
2021/12/15 15:11:05;;;;;;;4.75;1.42;;;;;;;;;;4972431;28;20406;-63
2021/12/15 15:13:38;;;;;;;5.07;1.20;;;;;;;;;;4972427;28;20046;-66
2021/12/15 15:16:10;;;;;;;3.45;1.33;;;;;;;;;;4954673;28;20075;-64
2021/12/15 15:19:17;;;;;;;4.95;1.52;;;;;;;;;;4991688;28;20084;-64
2021/12/15 15:21:47;;;;;;;2.38;1.17;;;;;;;;;;4952624;29;20062;-66
2021/12/15 15:24:24;;;;;;;4.10;1.30;;;;;;;;;;4952277;28;20056;-63
2021/12/15 15:27:01;;;;;;;4.70;1.42;;;;;;;;;;4952708;29;20063;-65
2021/12/15 15:29:35;;;;;;;2.08;1.42;;;;;;;;;;4941715;28;20054;-68
2021/12/15 15:32:14;;;;;;;2.30;1.33;;;;;;;;;;4972122;28;20125;-64
2021/12/15 15:34:46;;;;;;;3.13;1.38;;;;;;;;;;4971973;28;20115;-64
2021/12/15 15:37:25;;;;;;;3.40;1.50;;;;;;;;;;4972083;28;20055;-68
2021/12/15 15:40:20;;;;;;;5.10;1.55;;;;;;;;;;4971994;28;20055;-66
2021/12/15 15:42:58;;;;;;;3.08;1.38;;;;;;;;;;4972186;28;20051;-66
2021/12/15 15:45:46;;;;;;;5.30;1.42;;;;;;;;;;4971706;28;20054;-66
2021/12/15 15:48:23;;;;;;;3.85;1.40;;;;;;;;;;4971685;28;20063;-75
2021/12/15 15:51:22;;;;;;;2.85;1.83;;;;;;;;;;4952190;28;20447;-66
2021/12/15 15:53:56;;;;;;;3.47;1.25;;;;;;;;;;4890874;29;20052;-65
2021/12/15 15:56:29;;;;;;;2.60;1.40;;;;;;;;;;4914532;29;20064;-66
2021/12/15 15:59:05;;;;;;;3.40;1.20;;;;;;;;;;4917200;28;20058;-66
2021/12/15 16:01:43;;;;;;;3.83;1.33;;;;;;;;;;4971557;28;20058;-66
2021/12/15 16:04:16;;;;;;;3.03;1.88;;;;;;;;;;4971342;28;20466;-64
2021/12/15 16:06:47;;;;;;;1.90;1.13;;;;;;;;;;4907193;29;20048;-65
2021/12/15 16:09:23;;;;;;;5.38;1.33;;;;;;;;;;4876184;29;20518;-63
2021/12/15 16:11:56;;;;;;;3.15;1.20;;;;;;;;;;4872663;29;20049;-65
2021/12/15 16:14:28;;;;;;;2.70;1.42;;;;;;;;;;4876165;29;20053;-65
2021/12/15 16:17:18;;;;;;;2.63;1.15;;;;;;;;;;4876123;29;20060;-64
2021/12/15 16:20:13;;;;;;;4.78;1.33;;;;;;;;;;4845607;29;20049;-65
2021/12/15 16:23:02;;;;;;;2.70;1.48;;;;;;;;;;4860906;29;20064;-64
2021/12/15 16:25:37;;;;;;;5.28;1.20;;;;;;;;;;4876013;29;20072;-66
2021/12/15 16:28:12;;;;;;;3.88;1.05;;;;;;;;;;4866294;29;20052;-67
2021/12/15 16:30:52;;;;;;;1.77;1.13;;;;;;;;;;4912056;29;20508;-63
2021/12/15 16:33:35;;;;;;;2.50;1.42;;;;;;;;;;4885661;29;20048;-64
2021/12/15 16:36:07;;;;;;;9.63;2.05;;;;;;;;;;4932417;29;20438;-64
2021/12/15 16:38:43;;;;;;;5.45;1.30;;;;;;;;;;4932406;29;20055;-65
2021/12/15 16:41:28;;;;;;;4.72;1.30;;;;;;;;;;4932662;29;20051;-64
2021/12/15 16:44:17;;;;;;;4.10;1.50;;;;;;;;;;4944601;28;20054;-65
2021/12/15 16:47:05;;;;;;;4.32;1.23;;;;;;;;;;4989391;28;20069;-66
2021/12/15 16:49:41;;;;;;;3.15;1.38;;;;;;;;;;5009583;28;20539;-62
2021/12/15 16:52:18;;;;;;;3.70;1.52;;;;;;;;;;5025934;28;20051;-66
2021/12/15 16:54:57;;;;;;;2.50;1.45;;;;;;;;;;5009534;28;20058;-66
2021/12/15 16:57:30;;;;;;;3.45;1.20;;;;;;;;;;5009669;28;20058;-65
2021/12/15 17:00:03;;;;;;;2.90;1.15;;;;;;;;;;4970252;28;20466;-64
2021/12/15 17:02:50;;;;;;;1.80;1.10;;;;;;;;;;4938366;28;20051;-67